createdAt,value
2022-10-04T00:01:47.846Z,100.00
2022-10-04T00:04:19.116Z,100.00
2022-10-04T00:06:50.960Z,100.00
2022-10-04T00:09:23.429Z,100.00
2022-10-04T00:11:53.880Z,100.00
2022-10-04T00:14:24.240Z,100.00
2022-10-04T00:16:52.715Z,100.00
2022-10-04T00:19:40.293Z,100.00
2022-10-04T00:22:18.473Z,100.00
2022-10-04T00:25:23.128Z,100.00
2022-10-04T00:28:29.063Z,100.00
2022-10-04T00:31:17.525Z,100.00
2022-10-04T00:33:47.637Z,100.00
2022-10-04T00:36:40.607Z,100.00
2022-10-04T00:39:47.632Z,100.00
2022-10-04T00:42:37.756Z,100.00
2022-10-04T00:45:12.918Z,100.00
2022-10-04T00:47:59.324Z,100.00
2022-10-04T00:50:30.761Z,100.00
2022-10-04T00:53:01.053Z,100.00
2022-10-04T00:55:35.146Z,100.00
2022-10-04T00:58:07.514Z,100.00
2022-10-04T01:00:36.894Z,100.00
2022-10-04T01:03:07.313Z,100.00
2022-10-04T01:05:38.003Z,100.00
2022-10-04T01:08:07.600Z,100.00
2022-10-04T01:10:41.681Z,100.00
2022-10-04T01:13:15.367Z,100.00
2022-10-04T01:15:46.337Z,100.00
2022-10-04T01:18:16.606Z,100.00
2022-10-04T01:20:54.515Z,100.00
2022-10-04T01:23:41.873Z,100.00
2022-10-04T01:26:39.200Z,100.00
2022-10-04T01:29:10.310Z,100.00
2022-10-04T01:31:40.723Z,100.00
2022-10-04T01:34:09.066Z,100.00
2022-10-04T01:36:38.095Z,100.00
2022-10-04T01:39:08.215Z,100.00
2022-10-04T01:41:44.635Z,100.00
2022-10-04T01:44:20.126Z,100.00
2022-10-04T01:46:49.633Z,100.00
2022-10-04T01:49:20.223Z,100.00
2022-10-04T01:51:54.463Z,100.00
2022-10-04T01:54:32.527Z,100.00
2022-10-04T01:57:05.210Z,100.00
2022-10-04T01:59:39.506Z,100.00
2022-10-04T02:02:10.847Z,100.00
2022-10-04T02:04:40.466Z,100.00
2022-10-04T02:07:13.772Z,100.00
2022-10-04T02:09:45.705Z,100.00
2022-10-04T02:12:17.206Z,100.00
2022-10-04T02:14:52.648Z,100.00
2022-10-04T02:17:23.292Z,100.00
2022-10-04T02:19:51.309Z,100.00
2022-10-04T02:22:20.223Z,100.00
2022-10-04T02:24:50.826Z,100.00
2022-10-04T02:27:18.836Z,100.00
2022-10-04T02:29:47.078Z,100.00
2022-10-04T02:32:33.513Z,100.00
2022-10-04T02:35:01.831Z,100.00
2022-10-04T02:37:30.213Z,100.00
2022-10-04T02:40:06.216Z,100.00
2022-10-04T02:42:40.250Z,100.00
2022-10-04T02:45:14.899Z,100.00
2022-10-04T02:47:46.707Z,100.00
2022-10-04T02:50:27.624Z,100.00
2022-10-04T02:52:58.866Z,100.00
2022-10-04T02:55:31.278Z,100.00
2022-10-04T02:58:01.150Z,100.00
2022-10-04T03:00:30.710Z,100.00
2022-10-04T03:03:16.021Z,100.00
2022-10-04T03:05:46.055Z,100.00
2022-10-04T03:08:14.637Z,100.00
2022-10-04T03:10:45.006Z,100.00
2022-10-04T03:13:16.006Z,100.00
2022-10-04T03:15:44.448Z,100.00
2022-10-04T03:18:12.847Z,100.00
2022-10-04T03:20:41.690Z,100.00
2022-10-04T03:23:11.787Z,100.00
2022-10-04T03:25:47.343Z,100.00
2022-10-04T03:28:16.142Z,100.00
2022-10-04T03:30:45.328Z,100.00
2022-10-04T03:33:18.809Z,100.00
2022-10-04T03:35:48.667Z,100.00
2022-10-04T03:38:17.862Z,100.00
2022-10-04T03:40:53.232Z,100.00
2022-10-04T03:43:24.791Z,100.00
2022-10-04T03:45:53.443Z,100.00
2022-10-04T03:48:29.061Z,100.00
2022-10-04T03:50:57.566Z,100.00
2022-10-04T03:53:30.896Z,100.00
2022-10-04T03:56:04.175Z,100.00
2022-10-04T03:58:32.883Z,100.00
2022-10-04T04:01:14.640Z,100.00
2022-10-04T04:03:52.906Z,100.00
2022-10-04T04:06:21.994Z,100.00
2022-10-04T04:08:53.362Z,100.00
2022-10-04T04:11:24.909Z,100.00
2022-10-04T04:14:00.168Z,100.00
2022-10-04T04:16:28.613Z,100.00
2022-10-04T04:19:00.613Z,100.00
2022-10-04T04:21:29.166Z,100.00
2022-10-04T04:24:00.770Z,100.00
2022-10-04T04:26:36.082Z,100.00
2022-10-04T04:29:08.150Z,100.00
2022-10-04T04:31:40.268Z,100.00
2022-10-04T04:34:17.865Z,100.00
2022-10-04T04:36:46.138Z,100.00
2022-10-04T04:39:37.302Z,100.00
2022-10-04T04:42:15.401Z,100.00
2022-10-04T04:44:49.844Z,100.00
2022-10-04T04:47:33.212Z,100.00
2022-10-04T04:50:07.260Z,100.00
2022-10-04T04:52:36.247Z,100.00
2022-10-04T04:55:06.185Z,100.00
2022-10-04T04:57:36.008Z,100.00
2022-10-04T05:00:05.257Z,100.00
2022-10-04T05:02:35.595Z,100.00
2022-10-04T05:05:23.048Z,100.00
2022-10-04T05:07:52.670Z,100.00
2022-10-04T05:10:31.361Z,100.00
2022-10-04T05:13:04.453Z,100.00
2022-10-04T05:15:34.960Z,100.00
2022-10-04T05:18:03.664Z,100.00
2022-10-04T05:20:34.446Z,100.00
2022-10-04T05:23:02.473Z,100.00
2022-10-04T05:25:33.616Z,100.00
2022-10-04T05:28:03.620Z,100.00
2022-10-04T05:30:42.900Z,100.00
2022-10-04T05:33:13.418Z,100.00
2022-10-04T05:35:55.792Z,100.00
2022-10-04T05:38:28.917Z,100.00
2022-10-04T05:41:02.174Z,100.00
2022-10-04T05:43:36.923Z,100.00
2022-10-04T05:46:23.421Z,100.00
2022-10-04T05:48:55.448Z,100.00
2022-10-04T05:51:25.699Z,100.00
2022-10-04T05:53:54.434Z,100.00
2022-10-04T05:56:37.654Z,100.00
2022-10-04T05:59:15.223Z,100.00
2022-10-04T06:01:49.205Z,100.00
2022-10-04T06:04:32.540Z,100.00
2022-10-04T06:07:03.121Z,100.00
2022-10-04T06:09:47.103Z,100.00
2022-10-04T06:12:18.496Z,100.00
2022-10-04T06:15:08.356Z,100.00
2022-10-04T06:18:03.533Z,100.00
2022-10-04T06:20:54.917Z,100.00
2022-10-04T06:23:24.742Z,100.00
2022-10-04T06:25:56.348Z,100.00
2022-10-04T06:28:28.034Z,100.00
2022-10-04T06:31:27.904Z,100.00
2022-10-04T06:34:11.791Z,100.00
2022-10-04T06:37:02.160Z,100.00
2022-10-04T06:39:45.138Z,100.00
2022-10-04T06:42:40.651Z,100.00
2022-10-04T06:45:22.846Z,100.00
2022-10-04T06:48:18.622Z,100.00
2022-10-04T06:50:51.144Z,100.00
2022-10-04T06:53:27.879Z,100.00
2022-10-04T06:56:12.759Z,100.00
2022-10-04T06:59:23.674Z,100.00
2022-10-04T07:01:52.085Z,100.00
2022-10-04T07:04:41.161Z,100.00
2022-10-04T07:07:34.929Z,100.00
2022-10-04T07:10:16.561Z,100.00
2022-10-04T07:12:49.035Z,100.00
2022-10-04T07:15:21.077Z,100.00
2022-10-04T07:17:50.374Z,100.00
2022-10-04T07:20:23.743Z,100.00
2022-10-04T07:22:56.938Z,100.00
2022-10-04T07:25:28.961Z,100.00
2022-10-04T07:28:14.825Z,100.00
2022-10-04T07:30:48.609Z,100.00
2022-10-04T07:33:19.943Z,100.00
2022-10-04T07:35:52.022Z,100.00
2022-10-04T07:38:25.044Z,100.00
2022-10-04T07:41:04.965Z,100.00
2022-10-04T07:43:35.800Z,100.00
2022-10-04T07:46:07.666Z,100.00
2022-10-04T07:48:41.438Z,100.00
2022-10-04T07:51:20.587Z,100.00
2022-10-04T07:53:52.172Z,100.00
2022-10-04T07:56:23.667Z,100.00
2022-10-04T07:58:58.063Z,100.00
2022-10-04T08:01:31.558Z,100.00
2022-10-04T08:04:26.532Z,100.00
2022-10-04T08:06:59.960Z,100.00
2022-10-04T08:09:48.955Z,100.00
2022-10-04T08:12:22.024Z,100.00
2022-10-04T08:14:56.711Z,100.00
2022-10-04T08:17:41.835Z,100.00
2022-10-04T08:20:24.594Z,100.00
2022-10-04T08:23:05.866Z,100.00
2022-10-04T08:25:42.561Z,100.00
2022-10-04T08:28:39.501Z,100.00
2022-10-04T08:31:21.186Z,100.00
2022-10-04T08:33:59.489Z,100.00
2022-10-04T08:36:41.876Z,100.00
2022-10-04T08:39:24.348Z,100.00
2022-10-04T08:42:28.787Z,100.00
2022-10-04T08:45:32.402Z,100.00
2022-10-04T08:48:34.118Z,100.00
2022-10-04T08:51:30.595Z,100.00
2022-10-04T08:54:35.729Z,100.00
2022-10-04T08:57:25.502Z,100.00
2022-10-04T09:00:21.969Z,100.00
2022-10-04T09:03:17.830Z,100.00
2022-10-04T09:05:57.155Z,100.00
2022-10-04T09:09:15.442Z,100.00
2022-10-04T09:11:56.242Z,100.00
2022-10-04T09:14:50.128Z,100.00
2022-10-04T09:17:22.788Z,92.75
2022-10-04T09:20:09.079Z,100.00
2022-10-04T09:22:50.089Z,100.00
2022-10-04T09:25:23.808Z,89.29
2022-10-04T09:28:22.354Z,100.00
2022-10-04T09:31:03.041Z,100.00
2022-10-04T09:33:51.656Z,89.20
2022-10-04T09:36:41.549Z,82.08
2022-10-04T09:39:33.581Z,87.84
2022-10-04T09:42:27.813Z,80.42
2022-10-04T09:45:16.741Z,93.64
2022-10-04T09:47:49.185Z,80.03
2022-10-04T09:50:50.022Z,77.08
2022-10-04T09:53:35.966Z,81.42
2022-10-04T09:56:39.073Z,84.87
2022-10-04T09:59:32.500Z,67.76
2022-10-04T10:02:33.683Z,75.37
2022-10-04T10:05:21.006Z,58.35
2022-10-04T10:07:53.221Z,53.43
2022-10-04T10:10:45.313Z,59.90
2022-10-04T10:13:43.345Z,60.74
2022-10-04T10:16:22.785Z,62.84
2022-10-04T10:19:01.086Z,70.51
2022-10-04T10:21:49.672Z,73.35
2022-10-04T10:24:30.775Z,72.03
2022-10-04T10:27:09.724Z,74.18
2022-10-04T10:30:05.273Z,67.46
2022-10-04T10:32:42.811Z,63.52
2022-10-04T10:35:21.440Z,65.13
2022-10-04T10:38:04.793Z,64.30
2022-10-04T10:40:41.043Z,68.45
2022-10-04T10:43:33.521Z,58.99
2022-10-04T10:46:06.106Z,66.07
2022-10-04T10:48:48.365Z,80.40
2022-10-04T10:51:20.572Z,66.23
2022-10-04T10:54:17.045Z,61.47
2022-10-04T10:56:56.824Z,57.63
2022-10-04T10:59:54.096Z,59.08
2022-10-04T11:03:11.910Z,69.58
2022-10-04T11:06:25.143Z,70.51
2022-10-04T11:09:23.512Z,61.08
2022-10-04T11:12:28.778Z,57.27
2022-10-04T11:15:13.486Z,55.66
2022-10-04T11:18:20.279Z,59.82
2022-10-04T11:21:28.163Z,57.96
2022-10-04T11:24:30.502Z,57.44
2022-10-04T11:27:14.932Z,54.01
2022-10-04T11:30:00.311Z,58.64
2022-10-04T11:32:55.269Z,57.00
2022-10-04T11:36:15.399Z,62.08
2022-10-04T11:38:53.296Z,59.37
2022-10-04T11:41:29.258Z,60.13
2022-10-04T11:44:17.399Z,57.33
2022-10-04T11:46:51.142Z,53.15
2022-10-04T11:49:37.926Z,59.73
2022-10-04T11:52:31.375Z,57.44
2022-10-04T11:55:35.283Z,56.97
2022-10-04T11:58:11.978Z,49.39
2022-10-04T12:01:01.030Z,51.27
2022-10-04T12:03:59.946Z,56.14
2022-10-04T12:06:40.253Z,54.47
2022-10-04T12:09:15.719Z,55.03
2022-10-04T12:12:33.590Z,52.27
2022-10-04T12:15:22.337Z,58.31
2022-10-04T12:18:12.649Z,57.93
2022-10-04T12:21:17.973Z,61.87
2022-10-04T12:24:09.639Z,59.31
2022-10-04T12:27:21.876Z,58.04
2022-10-04T12:30:22.195Z,57.17
2022-10-04T12:32:58.196Z,55.38
2022-10-04T12:35:33.844Z,58.02
2022-10-04T12:38:19.752Z,57.93
2022-10-04T12:40:53.804Z,58.09
2022-10-04T12:43:28.169Z,56.18
2022-10-04T12:46:06.593Z,59.02
2022-10-04T12:48:48.250Z,52.64
2022-10-04T12:51:29.999Z,54.75
2022-10-04T12:54:04.150Z,54.42
2022-10-04T12:56:44.405Z,51.64
2022-10-04T12:59:29.161Z,49.33
2022-10-04T13:02:05.734Z,54.18
2022-10-04T13:04:38.879Z,51.10
2022-10-04T13:07:30.846Z,51.45
2022-10-04T13:10:24.230Z,53.32
2022-10-04T13:13:13.732Z,48.06
2022-10-04T13:18:35.606Z,47.59
2022-10-04T13:21:06.451Z,46.18
2022-10-04T13:23:54.343Z,50.10
2022-10-04T13:26:42.643Z,47.62
2022-10-04T13:29:18.662Z,47.61
2022-10-04T13:31:50.906Z,44.95
2022-10-04T13:34:28.247Z,47.51
2022-10-04T13:37:14.224Z,49.38
2022-10-04T13:39:59.410Z,47.50
2022-10-04T13:42:42.435Z,49.61
2022-10-04T13:45:32.132Z,50.66
2022-10-04T13:48:26.435Z,48.24
2022-10-04T13:51:36.667Z,49.26
2022-10-04T13:54:31.261Z,50.20
2022-10-04T13:57:07.551Z,49.67
2022-10-04T13:59:44.263Z,53.66
2022-10-04T14:02:34.521Z,50.84
2022-10-04T14:05:47.215Z,48.59
2022-10-04T14:08:49.920Z,52.39
2022-10-04T14:12:04.414Z,53.15
2022-10-04T14:15:14.681Z,52.17
2022-10-04T14:18:26.915Z,47.88
2022-10-04T14:21:35.535Z,49.96
2022-10-04T14:24:35.623Z,49.52
2022-10-04T14:27:37.452Z,57.61
2022-10-04T14:30:14.929Z,63.49
2022-10-04T14:33:15.330Z,59.93
2022-10-04T14:35:47.967Z,56.74
2022-10-04T14:38:37.634Z,59.85
2022-10-04T14:41:46.247Z,59.21
2022-10-04T14:44:51.047Z,57.05
2022-10-04T14:47:38.751Z,64.17
2022-10-04T14:50:23.120Z,67.10
2022-10-04T14:53:05.166Z,65.31
2022-10-04T14:55:55.701Z,62.46
2022-10-04T14:58:29.104Z,63.49
2022-10-04T15:01:06.675Z,64.88
2022-10-04T15:03:40.661Z,64.58
2022-10-04T15:06:36.522Z,68.11
2022-10-04T15:09:41.284Z,63.07
2022-10-04T15:13:08.727Z,67.49
2022-10-04T15:15:53.409Z,72.02
2022-10-04T15:18:31.365Z,74.87
2022-10-04T15:21:02.685Z,73.91
2022-10-04T15:23:37.883Z,68.20
2022-10-04T15:26:13.917Z,69.59
2022-10-04T15:28:56.823Z,71.10
2022-10-04T15:31:29.699Z,73.49
2022-10-04T15:34:03.200Z,72.63
2022-10-04T15:37:05.450Z,76.10
2022-10-04T15:40:06.367Z,83.37
2022-10-04T15:42:35.475Z,80.75
2022-10-04T15:45:38.722Z,77.19
2022-10-04T15:48:32.925Z,78.75
2022-10-04T15:51:07.124Z,73.08
2022-10-04T15:54:03.096Z,80.46
2022-10-04T15:56:46.256Z,76.55
2022-10-04T15:59:26.750Z,77.84
2022-10-04T16:02:18.558Z,80.12
2022-10-04T16:04:48.101Z,86.11
2022-10-04T16:07:32.224Z,79.91
2022-10-04T16:10:15.152Z,71.73
2022-10-04T16:13:14.246Z,77.50
2022-10-04T16:15:48.133Z,80.87
2022-10-04T16:18:35.606Z,94.28
2022-10-04T16:21:12.816Z,98.28
2022-10-04T16:23:43.992Z,99.40
2022-10-04T16:26:14.022Z,92.94
2022-10-04T16:29:07.109Z,97.47
2022-10-04T16:31:43.922Z,100.00
2022-10-04T16:34:27.103Z,100.00
2022-10-04T16:36:59.779Z,100.00
2022-10-04T16:39:52.309Z,100.00
2022-10-04T16:42:24.558Z,100.00
2022-10-04T16:44:56.097Z,100.00
2022-10-04T16:47:28.563Z,100.00
2022-10-04T16:49:58.901Z,100.00
2022-10-04T16:52:48.383Z,100.00
2022-10-04T16:55:26.665Z,100.00
2022-10-04T16:58:37.615Z,100.00
2022-10-04T17:01:57.557Z,100.00
2022-10-04T17:04:44.864Z,100.00
2022-10-04T17:07:24.936Z,100.00
2022-10-04T17:09:58.134Z,100.00
2022-10-04T17:12:35.367Z,100.00
2022-10-04T17:15:45.527Z,100.00
2022-10-04T17:18:21.209Z,100.00
2022-10-04T17:20:57.909Z,100.00
2022-10-04T17:23:54.652Z,100.00
2022-10-04T17:26:39.560Z,100.00
2022-10-04T17:29:21.737Z,100.00
2022-10-04T17:31:55.202Z,100.00
2022-10-04T17:34:33.330Z,100.00
2022-10-04T17:37:06.355Z,100.00
2022-10-04T17:39:44.382Z,100.00
2022-10-04T17:42:28.774Z,100.00
2022-10-04T17:45:36.795Z,100.00
2022-10-04T17:48:26.736Z,100.00
2022-10-04T17:51:17.603Z,100.00
2022-10-04T17:54:08.038Z,100.00
2022-10-04T17:56:41.406Z,100.00
2022-10-04T17:59:14.106Z,100.00
2022-10-04T18:01:45.912Z,100.00
2022-10-04T18:04:18.757Z,100.00
2022-10-04T18:06:52.372Z,100.00
2022-10-04T18:09:24.185Z,100.00
2022-10-04T18:11:56.871Z,100.00
2022-10-04T18:14:46.610Z,100.00
2022-10-04T18:17:27.043Z,100.00
2022-10-04T18:20:03.083Z,100.00
2022-10-04T18:22:43.425Z,100.00
2022-10-04T18:25:15.682Z,100.00
2022-10-04T18:28:02.194Z,100.00
2022-10-04T18:30:30.795Z,100.00
2022-10-04T18:32:59.095Z,100.00
2022-10-04T18:35:29.208Z,100.00
2022-10-04T18:37:59.813Z,100.00
2022-10-04T18:40:28.927Z,100.00
2022-10-04T18:43:01.796Z,100.00
2022-10-04T18:45:31.246Z,100.00
2022-10-04T18:48:01.337Z,100.00
2022-10-04T18:50:35.724Z,100.00
2022-10-04T18:53:24.274Z,100.00
2022-10-04T18:55:59.770Z,100.00
2022-10-04T18:58:59.403Z,100.00
2022-10-04T19:02:04.020Z,100.00
2022-10-04T19:04:39.719Z,100.00
2022-10-04T19:07:10.969Z,100.00
2022-10-04T19:10:04.891Z,100.00
2022-10-04T19:12:41.746Z,100.00
2022-10-04T19:15:23.274Z,100.00
2022-10-04T19:17:56.568Z,100.00
2022-10-04T19:20:27.915Z,100.00
2022-10-04T19:23:04.267Z,100.00
2022-10-04T19:25:39.135Z,100.00
2022-10-04T19:28:10.532Z,100.00
2022-10-04T19:31:01.622Z,100.00
2022-10-04T19:33:38.308Z,100.00
2022-10-04T19:36:15.354Z,100.00
2022-10-04T19:38:53.512Z,100.00
2022-10-04T19:41:30.855Z,100.00
2022-10-04T19:44:05.242Z,100.00
2022-10-04T19:46:41.677Z,100.00
2022-10-04T19:49:19.029Z,100.00
2022-10-04T19:51:51.324Z,100.00
2022-10-04T19:54:22.896Z,100.00
2022-10-04T19:56:51.957Z,100.00
2022-10-04T19:59:24.166Z,100.00
2022-10-04T20:01:53.800Z,100.00
2022-10-04T20:04:38.517Z,100.00
2022-10-04T20:07:13.193Z,100.00
2022-10-04T20:09:59.273Z,100.00
2022-10-04T20:12:36.451Z,100.00
2022-10-04T20:15:15.873Z,100.00
2022-10-04T20:17:47.526Z,100.00
2022-10-04T20:20:17.615Z,100.00
2022-10-04T20:22:57.342Z,100.00
2022-10-04T20:26:06.148Z,100.00
2022-10-04T20:28:44.824Z,100.00
2022-10-04T20:31:53.696Z,100.00
2022-10-04T20:34:34.280Z,100.00
2022-10-04T20:37:03.152Z,100.00
2022-10-04T20:40:01.520Z,100.00
2022-10-04T20:42:32.677Z,100.00
2022-10-04T20:45:03.704Z,100.00
2022-10-04T20:47:39.233Z,100.00
2022-10-04T20:50:16.493Z,100.00
2022-10-04T20:52:46.687Z,100.00
2022-10-04T20:55:27.162Z,100.00
2022-10-04T20:57:57.010Z,100.00
2022-10-04T21:00:27.334Z,100.00
2022-10-04T21:03:09.611Z,100.00
2022-10-04T21:05:40.325Z,100.00
2022-10-04T21:08:15.973Z,100.00
2022-10-04T21:11:19.444Z,100.00
2022-10-04T21:13:59.189Z,100.00
2022-10-04T21:16:52.331Z,100.00
2022-10-04T21:19:47.329Z,100.00
2022-10-04T21:22:42.923Z,100.00
2022-10-04T21:25:42.577Z,100.00
2022-10-04T21:28:40.758Z,100.00
2022-10-04T21:31:09.049Z,100.00
2022-10-04T21:33:37.904Z,100.00
2022-10-04T21:36:06.966Z,100.00
2022-10-04T21:38:35.256Z,100.00
2022-10-04T21:41:04.838Z,100.00
2022-10-04T21:43:33.382Z,100.00
2022-10-04T21:46:01.795Z,100.00
2022-10-04T21:48:30.129Z,100.00
2022-10-04T21:50:58.399Z,100.00
2022-10-04T21:53:26.615Z,100.00
2022-10-04T21:55:54.897Z,100.00
2022-10-04T21:58:24.467Z,100.00
2022-10-04T22:00:52.732Z,100.00
2022-10-04T22:03:21.086Z,100.00
2022-10-04T22:05:49.334Z,100.00
2022-10-04T22:08:17.631Z,100.00
2022-10-04T22:10:47.232Z,100.00
2022-10-04T22:13:15.551Z,100.00
2022-10-04T22:15:45.190Z,100.00
2022-10-04T22:18:13.467Z,100.00
2022-10-04T22:20:41.702Z,100.00
2022-10-04T22:23:13.366Z,100.00
2022-10-04T22:25:41.624Z,100.00
2022-10-04T22:28:18.422Z,100.00
2022-10-04T22:30:49.450Z,100.00
2022-10-04T22:33:28.265Z,100.00
2022-10-04T22:35:57.612Z,100.00
2022-10-04T22:38:25.817Z,100.00
2022-10-04T22:40:54.539Z,100.00
2022-10-04T22:43:22.746Z,100.00
2022-10-04T22:45:58.506Z,100.00
2022-10-04T22:48:28.898Z,100.00
2022-10-04T22:50:57.220Z,100.00
2022-10-04T22:53:25.836Z,100.00
2022-10-04T22:55:55.895Z,100.00
2022-10-04T22:58:24.197Z,100.00
2022-10-04T23:00:54.483Z,100.00
2022-10-04T23:03:31.175Z,100.00
2022-10-04T23:05:59.587Z,100.00
2022-10-04T23:08:28.242Z,100.00
2022-10-04T23:10:56.848Z,100.00
2022-10-04T23:13:26.352Z,100.00
2022-10-04T23:15:58.727Z,100.00
2022-10-04T23:18:28.025Z,100.00
2022-10-04T23:20:59.009Z,100.00
2022-10-04T23:23:28.858Z,100.00
2022-10-04T23:25:57.213Z,100.00
2022-10-04T23:28:25.739Z,100.00
2022-10-04T23:31:03.097Z,100.00
2022-10-04T23:33:31.501Z,100.00
2022-10-04T23:35:59.874Z,100.00
2022-10-04T23:38:29.355Z,100.00
2022-10-04T23:40:57.620Z,100.00
2022-10-04T23:43:26.899Z,100.00
2022-10-04T23:45:58.772Z,100.00
2022-10-04T23:48:28.772Z,100.00
2022-10-04T23:50:59.761Z,100.00
2022-10-04T23:53:29.078Z,100.00
2022-10-04T23:55:58.377Z,100.00
2022-10-04T23:58:31.608Z,100.00
